sensor_id;sensor_type;location;lat;lon;timestamp;temperature;humidity
7588;DHT22;3835;48.850;8.938;2022-10-30T00:01:40;15.90;99.90
7588;DHT22;3835;48.850;8.938;2022-10-30T00:04:08;15.90;99.90
7588;DHT22;3835;48.850;8.938;2022-10-30T00:06:34;15.80;99.90
7588;DHT22;3835;48.850;8.938;2022-10-30T00:09:01;15.80;99.90
7588;DHT22;3835;48.850;8.938;2022-10-30T00:11:28;15.90;99.90
7588;DHT22;3835;48.850;8.938;2022-10-30T00:13:56;15.90;99.90
7588;DHT22;3835;48.850;8.938;2022-10-30T00:16:23;15.90;99.90
7588;DHT22;3835;48.850;8.938;2022-10-30T00:18:51;16.00;99.90
7588;DHT22;3835;48.850;8.938;2022-10-30T00:21:17;15.90;99.90
7588;DHT22;3835;48.850;8.938;2022-10-30T00:23:46;15.80;99.90
7588;DHT22;3835;48.850;8.938;2022-10-30T00:26:13;15.80;99.90
7588;DHT22;3835;48.850;8.938;2022-10-30T00:28:40;15.70;99.90
7588;DHT22;3835;48.850;8.938;2022-10-30T00:31:08;15.70;99.90
7588;DHT22;3835;48.850;8.938;2022-10-30T00:33:35;15.70;99.90
7588;DHT22;3835;48.850;8.938;2022-10-30T00:36:01;15.80;99.90
7588;DHT22;3835;48.850;8.938;2022-10-30T00:38:28;16.00;99.90
7588;DHT22;3835;48.850;8.938;2022-10-30T00:40:55;16.00;99.90
7588;DHT22;3835;48.850;8.938;2022-10-30T00:43:30;16.00;99.90
7588;DHT22;3835;48.850;8.938;2022-10-30T00:46:00;16.00;99.90
7588;DHT22;3835;48.850;8.938;2022-10-30T00:48:29;16.00;99.90
7588;DHT22;3835;48.850;8.938;2022-10-30T00:50:58;16.10;99.90
7588;DHT22;3835;48.850;8.938;2022-10-30T00:53:26;16.10;99.90
7588;DHT22;3835;48.850;8.938;2022-10-30T00:55:56;16.20;99.90
7588;DHT22;3835;48.850;8.938;2022-10-30T00:58:26;16.00;99.90
7588;DHT22;3835;48.850;8.938;2022-10-30T01:00:56;16.00;99.90
7588;DHT22;3835;48.850;8.938;2022-10-30T01:03:27;15.90;99.90
7588;DHT22;3835;48.850;8.938;2022-10-30T01:05:59;15.90;99.90
7588;DHT22;3835;48.850;8.938;2022-10-30T01:08:27;15.90;99.90
7588;DHT22;3835;48.850;8.938;2022-10-30T01:10:55;16.00;99.90
7588;DHT22;3835;48.850;8.938;2022-10-30T01:13:23;15.90;99.90
7588;DHT22;3835;48.850;8.938;2022-10-30T01:16:03;15.80;99.90
7588;DHT22;3835;48.850;8.938;2022-10-30T01:18:40;15.70;99.90
7588;DHT22;3835;48.850;8.938;2022-10-30T01:21:26;15.70;99.90
7588;DHT22;3835;48.850;8.938;2022-10-30T01:24:11;15.60;99.90
7588;DHT22;3835;48.850;8.938;2022-10-30T01:26:49;15.60;99.90
7588;DHT22;3835;48.850;8.938;2022-10-30T01:29:28;15.50;99.90
7588;DHT22;3835;48.850;8.938;2022-10-30T01:32:16;15.40;99.90
7588;DHT22;3835;48.850;8.938;2022-10-30T01:34:54;15.30;99.90
7588;DHT22;3835;48.850;8.938;2022-10-30T01:37:28;15.20;99.90
7588;DHT22;3835;48.850;8.938;2022-10-30T01:40:03;15.10;99.90
7588;DHT22;3835;48.850;8.938;2022-10-30T01:42:44;15.00;99.90
7588;DHT22;3835;48.850;8.938;2022-10-30T01:45:15;14.90;99.90
7588;DHT22;3835;48.850;8.938;2022-10-30T01:48:00;15.10;99.90
7588;DHT22;3835;48.850;8.938;2022-10-30T01:50:37;15.10;99.90
7588;DHT22;3835;48.850;8.938;2022-10-30T01:53:18;15.10;99.90
7588;DHT22;3835;48.850;8.938;2022-10-30T01:55:53;15.00;99.90
7588;DHT22;3835;48.850;8.938;2022-10-30T01:58:27;15.00;99.90
7588;DHT22;3835;48.850;8.938;2022-10-30T02:00:57;15.00;99.90
7588;DHT22;3835;48.850;8.938;2022-10-30T02:03:24;15.00;99.90
7588;DHT22;3835;48.850;8.938;2022-10-30T02:05:53;15.00;99.90
7588;DHT22;3835;48.850;8.938;2022-10-30T02:08:21;14.90;99.90
7588;DHT22;3835;48.850;8.938;2022-10-30T02:10:50;14.80;99.90
7588;DHT22;3835;48.850;8.938;2022-10-30T02:13:17;14.80;99.90
7588;DHT22;3835;48.850;8.938;2022-10-30T02:15:45;14.70;99.90
7588;DHT22;3835;48.850;8.938;2022-10-30T02:18:12;14.70;99.90
7588;DHT22;3835;48.850;8.938;2022-10-30T02:20:41;14.70;99.90
7588;DHT22;3835;48.850;8.938;2022-10-30T02:23:07;14.70;99.90
7588;DHT22;3835;48.850;8.938;2022-10-30T02:25:37;14.70;99.90
7588;DHT22;3835;48.850;8.938;2022-10-30T02:28:04;14.70;99.90
7588;DHT22;3835;48.850;8.938;2022-10-30T02:30:31;14.60;99.90
7588;DHT22;3835;48.850;8.938;2022-10-30T02:32:58;14.60;99.90
7588;DHT22;3835;48.850;8.938;2022-10-30T02:35:24;14.60;99.90
7588;DHT22;3835;48.850;8.938;2022-10-30T02:37:52;14.50;99.90
7588;DHT22;3835;48.850;8.938;2022-10-30T02:40:19;14.40;99.90
7588;DHT22;3835;48.850;8.938;2022-10-30T02:42:51;14.40;99.90
7588;DHT22;3835;48.850;8.938;2022-10-30T02:45:18;14.20;99.90
7588;DHT22;3835;48.850;8.938;2022-10-30T02:47:45;14.00;99.90
7588;DHT22;3835;48.850;8.938;2022-10-30T02:50:12;13.90;99.90
7588;DHT22;3835;48.850;8.938;2022-10-30T02:52:38;13.80;99.90
7588;DHT22;3835;48.850;8.938;2022-10-30T02:55:07;13.70;99.90
7588;DHT22;3835;48.850;8.938;2022-10-30T02:57:34;13.60;99.90
7588;DHT22;3835;48.850;8.938;2022-10-30T03:00:01;13.50;99.90
7588;DHT22;3835;48.850;8.938;2022-10-30T03:02:28;13.50;99.90
7588;DHT22;3835;48.850;8.938;2022-10-30T03:04:54;13.50;99.90
7588;DHT22;3835;48.850;8.938;2022-10-30T03:07:21;13.50;99.90
7588;DHT22;3835;48.850;8.938;2022-10-30T03:09:48;13.50;99.90
7588;DHT22;3835;48.850;8.938;2022-10-30T03:12:17;13.40;99.90
7588;DHT22;3835;48.850;8.938;2022-10-30T03:14:44;13.40;99.90
7588;DHT22;3835;48.850;8.938;2022-10-30T03:17:11;13.40;99.90
7588;DHT22;3835;48.850;8.938;2022-10-30T03:19:38;13.40;99.90
7588;DHT22;3835;48.850;8.938;2022-10-30T03:22:05;13.40;99.90
7588;DHT22;3835;48.850;8.938;2022-10-30T03:24:32;13.50;99.90
7588;DHT22;3835;48.850;8.938;2022-10-30T03:26:59;13.50;99.90
7588;DHT22;3835;48.850;8.938;2022-10-30T03:29:27;13.60;99.90
7588;DHT22;3835;48.850;8.938;2022-10-30T03:31:54;13.60;99.90
7588;DHT22;3835;48.850;8.938;2022-10-30T03:34:21;13.60;99.90
7588;DHT22;3835;48.850;8.938;2022-10-30T03:36:48;13.60;99.90
7588;DHT22;3835;48.850;8.938;2022-10-30T03:39:14;13.60;99.90
7588;DHT22;3835;48.850;8.938;2022-10-30T03:41:41;13.60;99.90
7588;DHT22;3835;48.850;8.938;2022-10-30T03:44:08;13.60;99.90
7588;DHT22;3835;48.850;8.938;2022-10-30T03:46:37;13.50;99.90
7588;DHT22;3835;48.850;8.938;2022-10-30T03:49:03;13.30;99.90
7588;DHT22;3835;48.850;8.938;2022-10-30T03:51:30;13.10;99.90
7588;DHT22;3835;48.850;8.938;2022-10-30T03:53:57;13.10;99.90
7588;DHT22;3835;48.850;8.938;2022-10-30T03:56:24;13.20;99.90
7588;DHT22;3835;48.850;8.938;2022-10-30T03:58:50;13.20;99.90
7588;DHT22;3835;48.850;8.938;2022-10-30T04:01:17;13.10;99.90
7588;DHT22;3835;48.850;8.938;2022-10-30T04:03:45;13.10;99.90
7588;DHT22;3835;48.850;8.938;2022-10-30T04:06:12;13.10;99.90
7588;DHT22;3835;48.850;8.938;2022-10-30T04:08:39;13.00;99.90
7588;DHT22;3835;48.850;8.938;2022-10-30T04:11:08;13.00;99.90
7588;DHT22;3835;48.850;8.938;2022-10-30T04:13:35;12.90;99.90
7588;DHT22;3835;48.850;8.938;2022-10-30T04:16:02;12.90;99.90
7588;DHT22;3835;48.850;8.938;2022-10-30T04:18:29;12.80;99.90
7588;DHT22;3835;48.850;8.938;2022-10-30T04:20:58;12.80;99.90
7588;DHT22;3835;48.850;8.938;2022-10-30T04:23:25;12.90;99.90
7588;DHT22;3835;48.850;8.938;2022-10-30T04:25:51;12.90;99.90
7588;DHT22;3835;48.850;8.938;2022-10-30T04:28:18;12.90;99.90
7588;DHT22;3835;48.850;8.938;2022-10-30T04:30:45;12.90;99.90
7588;DHT22;3835;48.850;8.938;2022-10-30T04:33:13;12.90;99.90
7588;DHT22;3835;48.850;8.938;2022-10-30T04:35:40;13.00;99.90
7588;DHT22;3835;48.850;8.938;2022-10-30T04:38:09;13.00;99.90
7588;DHT22;3835;48.850;8.938;2022-10-30T04:40:38;13.10;99.90
7588;DHT22;3835;48.850;8.938;2022-10-30T04:43:06;13.10;99.90
7588;DHT22;3835;48.850;8.938;2022-10-30T04:45:33;13.10;99.90
7588;DHT22;3835;48.850;8.938;2022-10-30T04:48:01;13.10;99.90
7588;DHT22;3835;48.850;8.938;2022-10-30T04:50:28;13.10;99.90
7588;DHT22;3835;48.850;8.938;2022-10-30T04:52:59;13.00;99.90
7588;DHT22;3835;48.850;8.938;2022-10-30T04:55:28;13.00;99.90
7588;DHT22;3835;48.850;8.938;2022-10-30T04:57:55;12.90;99.90
7588;DHT22;3835;48.850;8.938;2022-10-30T05:00:23;12.90;99.90
7588;DHT22;3835;48.850;8.938;2022-10-30T05:02:50;12.80;99.90
7588;DHT22;3835;48.850;8.938;2022-10-30T05:05:17;12.70;99.90
7588;DHT22;3835;48.850;8.938;2022-10-30T05:07:43;12.70;99.90
7588;DHT22;3835;48.850;8.938;2022-10-30T05:10:11;12.70;99.90
7588;DHT22;3835;48.850;8.938;2022-10-30T05:12:40;12.70;99.90
7588;DHT22;3835;48.850;8.938;2022-10-30T05:15:08;12.70;99.90
7588;DHT22;3835;48.850;8.938;2022-10-30T05:17:35;12.60;99.90
7588;DHT22;3835;48.850;8.938;2022-10-30T05:20:02;12.50;99.90
7588;DHT22;3835;48.850;8.938;2022-10-30T05:22:29;12.20;99.90
7588;DHT22;3835;48.850;8.938;2022-10-30T05:24:56;11.90;99.90
7588;DHT22;3835;48.850;8.938;2022-10-30T05:27:23;11.70;99.90
7588;DHT22;3835;48.850;8.938;2022-10-30T05:29:51;11.60;99.90
7588;DHT22;3835;48.850;8.938;2022-10-30T05:32:17;11.60;99.90
7588;DHT22;3835;48.850;8.938;2022-10-30T05:34:44;11.60;99.90
7588;DHT22;3835;48.850;8.938;2022-10-30T05:37:11;11.70;99.90
7588;DHT22;3835;48.850;8.938;2022-10-30T05:39:38;11.70;99.90
7588;DHT22;3835;48.850;8.938;2022-10-30T05:42:04;11.90;99.90
7588;DHT22;3835;48.850;8.938;2022-10-30T05:44:31;12.00;99.90
7588;DHT22;3835;48.850;8.938;2022-10-30T05:46:59;12.10;99.90
7588;DHT22;3835;48.850;8.938;2022-10-30T05:49:26;12.20;99.90
7588;DHT22;3835;48.850;8.938;2022-10-30T05:51:53;12.20;99.90
7588;DHT22;3835;48.850;8.938;2022-10-30T05:54:19;12.20;99.90
7588;DHT22;3835;48.850;8.938;2022-10-30T05:56:46;12.20;99.90
7588;DHT22;3835;48.850;8.938;2022-10-30T05:59:13;12.30;99.90
7588;DHT22;3835;48.850;8.938;2022-10-30T06:01:40;12.40;99.90
7588;DHT22;3835;48.850;8.938;2022-10-30T06:04:08;12.50;99.90
7588;DHT22;3835;48.850;8.938;2022-10-30T06:06:35;12.50;99.90
7588;DHT22;3835;48.850;8.938;2022-10-30T06:09:02;12.70;99.90
7588;DHT22;3835;48.850;8.938;2022-10-30T06:11:29;12.80;99.90
7588;DHT22;3835;48.850;8.938;2022-10-30T06:13:55;12.80;99.90
7588;DHT22;3835;48.850;8.938;2022-10-30T06:16:22;12.80;99.90
7588;DHT22;3835;48.850;8.938;2022-10-30T06:18:49;12.90;99.90
7588;DHT22;3835;48.850;8.938;2022-10-30T06:21:17;12.90;99.90
7588;DHT22;3835;48.850;8.938;2022-10-30T06:23:44;12.90;99.90
7588;DHT22;3835;48.850;8.938;2022-10-30T06:26:10;12.90;99.90
7588;DHT22;3835;48.850;8.938;2022-10-30T06:28:37;12.90;99.90
7588;DHT22;3835;48.850;8.938;2022-10-30T06:31:04;12.80;99.90
7588;DHT22;3835;48.850;8.938;2022-10-30T06:33:31;12.80;99.90
7588;DHT22;3835;48.850;8.938;2022-10-30T06:35:58;12.80;99.90
7588;DHT22;3835;48.850;8.938;2022-10-30T06:38:26;12.80;99.90
7588;DHT22;3835;48.850;8.938;2022-10-30T06:40:53;12.90;99.90
7588;DHT22;3835;48.850;8.938;2022-10-30T06:43:19;12.90;99.90
7588;DHT22;3835;48.850;8.938;2022-10-30T06:45:46;13.10;99.90
7588;DHT22;3835;48.850;8.938;2022-10-30T06:48:13;13.20;99.90
7588;DHT22;3835;48.850;8.938;2022-10-30T06:50:40;13.30;99.90
7588;DHT22;3835;48.850;8.938;2022-10-30T06:53:06;13.40;99.90
7588;DHT22;3835;48.850;8.938;2022-10-30T06:55:34;13.60;99.90
7588;DHT22;3835;48.850;8.938;2022-10-30T06:58:01;13.70;99.90
7588;DHT22;3835;48.850;8.938;2022-10-30T07:00:28;13.80;99.90
7588;DHT22;3835;48.850;8.938;2022-10-30T07:02:56;13.80;99.90
7588;DHT22;3835;48.850;8.938;2022-10-30T07:05:23;13.80;99.90
7588;DHT22;3835;48.850;8.938;2022-10-30T07:07:50;13.90;99.90
7588;DHT22;3835;48.850;8.938;2022-10-30T07:10:17;13.90;99.90
7588;DHT22;3835;48.850;8.938;2022-10-30T07:12:51;14.00;99.90
7588;DHT22;3835;48.850;8.938;2022-10-30T07:15:18;14.00;99.90
7588;DHT22;3835;48.850;8.938;2022-10-30T07:17:51;14.10;99.90
7588;DHT22;3835;48.850;8.938;2022-10-30T07:20:19;14.20;99.90
7588;DHT22;3835;48.850;8.938;2022-10-30T07:22:46;14.40;99.90
7588;DHT22;3835;48.850;8.938;2022-10-30T07:25:13;14.50;99.90
7588;DHT22;3835;48.850;8.938;2022-10-30T07:27:44;14.70;99.90
7588;DHT22;3835;48.850;8.938;2022-10-30T07:30:13;14.90;99.90
7588;DHT22;3835;48.850;8.938;2022-10-30T07:32:41;15.10;99.90
7588;DHT22;3835;48.850;8.938;2022-10-30T07:35:09;15.30;99.90
7588;DHT22;3835;48.850;8.938;2022-10-30T07:37:36;15.50;99.90
7588;DHT22;3835;48.850;8.938;2022-10-30T07:40:04;15.60;99.90
7588;DHT22;3835;48.850;8.938;2022-10-30T07:42:31;15.80;99.90
7588;DHT22;3835;48.850;8.938;2022-10-30T07:44:58;16.00;99.90
7588;DHT22;3835;48.850;8.938;2022-10-30T07:47:26;16.20;99.90
7588;DHT22;3835;48.850;8.938;2022-10-30T07:49:52;16.30;99.90
7588;DHT22;3835;48.850;8.938;2022-10-30T07:52:19;16.40;99.90
7588;DHT22;3835;48.850;8.938;2022-10-30T07:54:46;16.50;99.90
7588;DHT22;3835;48.850;8.938;2022-10-30T07:57:13;16.60;99.90
7588;DHT22;3835;48.850;8.938;2022-10-30T07:59:39;16.70;99.90
7588;DHT22;3835;48.850;8.938;2022-10-30T08:02:07;16.80;99.90
7588;DHT22;3835;48.850;8.938;2022-10-30T08:04:36;17.00;99.90
7588;DHT22;3835;48.850;8.938;2022-10-30T08:07:03;17.00;99.90
7588;DHT22;3835;48.850;8.938;2022-10-30T08:09:30;17.10;99.90
7588;DHT22;3835;48.850;8.938;2022-10-30T08:11:56;17.20;99.90
7588;DHT22;3835;48.850;8.938;2022-10-30T08:14:23;17.30;99.90
7588;DHT22;3835;48.850;8.938;2022-10-30T08:16:50;17.30;99.90
7588;DHT22;3835;48.850;8.938;2022-10-30T08:19:17;17.30;99.90
7588;DHT22;3835;48.850;8.938;2022-10-30T08:21:45;17.40;99.90
7588;DHT22;3835;48.850;8.938;2022-10-30T08:24:12;17.50;99.90
7588;DHT22;3835;48.850;8.938;2022-10-30T08:26:38;17.60;99.90
7588;DHT22;3835;48.850;8.938;2022-10-30T08:29:05;17.70;99.90
7588;DHT22;3835;48.850;8.938;2022-10-30T08:31:32;17.70;99.90
7588;DHT22;3835;48.850;8.938;2022-10-30T08:33:59;17.80;99.90
7588;DHT22;3835;48.850;8.938;2022-10-30T08:36:25;17.90;99.90
7588;DHT22;3835;48.850;8.938;2022-10-30T08:38:53;18.00;99.90
7588;DHT22;3835;48.850;8.938;2022-10-30T08:41:20;18.10;99.90
7588;DHT22;3835;48.850;8.938;2022-10-30T08:43:47;18.20;99.90
7588;DHT22;3835;48.850;8.938;2022-10-30T08:46:13;18.30;99.90
7588;DHT22;3835;48.850;8.938;2022-10-30T08:48:40;18.40;99.90
7588;DHT22;3835;48.850;8.938;2022-10-30T08:51:07;18.50;99.90
7588;DHT22;3835;48.850;8.938;2022-10-30T08:53:34;18.60;99.90
7588;DHT22;3835;48.850;8.938;2022-10-30T08:56:02;18.70;99.90
7588;DHT22;3835;48.850;8.938;2022-10-30T08:58:29;18.80;99.90
7588;DHT22;3835;48.850;8.938;2022-10-30T09:00:56;18.90;99.90
7588;DHT22;3835;48.850;8.938;2022-10-30T09:03:23;19.00;99.90
7588;DHT22;3835;48.850;8.938;2022-10-30T09:05:50;19.00;99.90
7588;DHT22;3835;48.850;8.938;2022-10-30T09:08:16;19.00;99.90
7588;DHT22;3835;48.850;8.938;2022-10-30T09:10:43;19.10;99.90
7588;DHT22;3835;48.850;8.938;2022-10-30T09:13:11;19.20;99.90
7588;DHT22;3835;48.850;8.938;2022-10-30T09:15:38;19.30;99.90
7588;DHT22;3835;48.850;8.938;2022-10-30T09:18:05;19.40;99.90
7588;DHT22;3835;48.850;8.938;2022-10-30T09:20:31;19.50;99.90
7588;DHT22;3835;48.850;8.938;2022-10-30T09:22:58;19.50;99.90
7588;DHT22;3835;48.850;8.938;2022-10-30T09:25:25;19.60;99.90
7588;DHT22;3835;48.850;8.938;2022-10-30T09:27:52;19.70;99.90
7588;DHT22;3835;48.850;8.938;2022-10-30T09:30:20;19.80;99.90
7588;DHT22;3835;48.850;8.938;2022-10-30T09:32:53;19.90;99.90
7588;DHT22;3835;48.850;8.938;2022-10-30T09:35:20;20.00;99.90
7588;DHT22;3835;48.850;8.938;2022-10-30T09:37:47;20.10;99.90
7588;DHT22;3835;48.850;8.938;2022-10-30T09:40:20;20.20;99.90
7588;DHT22;3835;48.850;8.938;2022-10-30T09:42:49;20.20;99.90
7588;DHT22;3835;48.850;8.938;2022-10-30T09:45:38;20.30;99.90
7588;DHT22;3835;48.850;8.938;2022-10-30T09:48:34;20.30;99.90
7588;DHT22;3835;48.850;8.938;2022-10-30T09:51:12;20.40;99.90
7588;DHT22;3835;48.850;8.938;2022-10-30T09:53:52;20.50;99.90
7588;DHT22;3835;48.850;8.938;2022-10-30T09:56:27;20.60;99.90
7588;DHT22;3835;48.850;8.938;2022-10-30T09:59:04;20.60;99.90
7588;DHT22;3835;48.850;8.938;2022-10-30T10:01:40;20.60;99.90
7588;DHT22;3835;48.850;8.938;2022-10-30T10:04:18;20.60;99.90
7588;DHT22;3835;48.850;8.938;2022-10-30T10:06:51;20.60;99.90
7588;DHT22;3835;48.850;8.938;2022-10-30T10:09:23;20.50;99.90
7588;DHT22;3835;48.850;8.938;2022-10-30T10:11:53;20.40;99.90
7588;DHT22;3835;48.850;8.938;2022-10-30T10:14:24;20.50;99.90
7588;DHT22;3835;48.850;8.938;2022-10-30T10:16:54;20.50;99.90
7588;DHT22;3835;48.850;8.938;2022-10-30T10:19:27;20.50;99.90
7588;DHT22;3835;48.850;8.938;2022-10-30T10:21:57;20.50;99.90
7588;DHT22;3835;48.850;8.938;2022-10-30T10:24:25;20.50;99.90
7588;DHT22;3835;48.850;8.938;2022-10-30T10:26:56;20.50;99.90
7588;DHT22;3835;48.850;8.938;2022-10-30T10:29:43;20.50;99.90
7588;DHT22;3835;48.850;8.938;2022-10-30T10:32:34;20.50;99.90
7588;DHT22;3835;48.850;8.938;2022-10-30T10:38:04;20.50;99.90
7588;DHT22;3835;48.850;8.938;2022-10-30T10:40:42;20.60;99.90
7588;DHT22;3835;48.850;8.938;2022-10-30T10:43:19;20.70;99.90
7588;DHT22;3835;48.850;8.938;2022-10-30T10:45:55;20.80;99.90
7588;DHT22;3835;48.850;8.938;2022-10-30T10:48:44;20.80;99.90
7588;DHT22;3835;48.850;8.938;2022-10-30T10:51:15;20.90;99.90
7588;DHT22;3835;48.850;8.938;2022-10-30T10:53:45;21.00;99.90
7588;DHT22;3835;48.850;8.938;2022-10-30T10:56:14;21.10;99.90
7588;DHT22;3835;48.850;8.938;2022-10-30T10:58:47;21.10;99.90
7588;DHT22;3835;48.850;8.938;2022-10-30T11:01:18;21.10;99.90
7588;DHT22;3835;48.850;8.938;2022-10-30T11:03:56;21.20;99.90
7588;DHT22;3835;48.850;8.938;2022-10-30T11:06:26;21.20;99.90
7588;DHT22;3835;48.850;8.938;2022-10-30T11:08:59;21.30;99.90
7588;DHT22;3835;48.850;8.938;2022-10-30T11:11:27;21.30;99.90
7588;DHT22;3835;48.850;8.938;2022-10-30T11:13:54;21.40;99.90
7588;DHT22;3835;48.850;8.938;2022-10-30T11:16:26;21.50;99.90
7588;DHT22;3835;48.850;8.938;2022-10-30T11:18:59;21.50;99.90
7588;DHT22;3835;48.850;8.938;2022-10-30T11:21:29;21.50;99.90
7588;DHT22;3835;48.850;8.938;2022-10-30T11:23:57;21.50;99.90
7588;DHT22;3835;48.850;8.938;2022-10-30T11:26:30;21.50;99.90
7588;DHT22;3835;48.850;8.938;2022-10-30T11:29:00;21.50;99.90
7588;DHT22;3835;48.850;8.938;2022-10-30T11:31:31;21.50;99.90
7588;DHT22;3835;48.850;8.938;2022-10-30T11:34:19;21.60;99.90
7588;DHT22;3835;48.850;8.938;2022-10-30T11:36:50;21.60;99.90
7588;DHT22;3835;48.850;8.938;2022-10-30T11:39:19;21.50;99.90
7588;DHT22;3835;48.850;8.938;2022-10-30T11:41:53;21.40;99.90
7588;DHT22;3835;48.850;8.938;2022-10-30T11:44:20;21.40;99.90
7588;DHT22;3835;48.850;8.938;2022-10-30T11:46:47;21.50;99.90
7588;DHT22;3835;48.850;8.938;2022-10-30T11:49:30;21.50;99.90
7588;DHT22;3835;48.850;8.938;2022-10-30T11:51:58;21.50;99.90
7588;DHT22;3835;48.850;8.938;2022-10-30T11:54:26;21.50;99.90
7588;DHT22;3835;48.850;8.938;2022-10-30T11:56:53;21.50;99.90
7588;DHT22;3835;48.850;8.938;2022-10-30T11:59:22;21.60;99.90
7588;DHT22;3835;48.850;8.938;2022-10-30T12:02:01;21.50;99.90
7588;DHT22;3835;48.850;8.938;2022-10-30T12:04:29;21.60;99.90
7588;DHT22;3835;48.850;8.938;2022-10-30T12:07:07;21.60;99.90
7588;DHT22;3835;48.850;8.938;2022-10-30T12:09:44;21.60;99.90
7588;DHT22;3835;48.850;8.938;2022-10-30T12:12:19;21.60;99.90
7588;DHT22;3835;48.850;8.938;2022-10-30T12:14:47;21.70;99.90
7588;DHT22;3835;48.850;8.938;2022-10-30T12:17:14;21.70;99.90
7588;DHT22;3835;48.850;8.938;2022-10-30T12:19:47;21.80;99.90
7588;DHT22;3835;48.850;8.938;2022-10-30T12:22:26;21.90;99.90
7588;DHT22;3835;48.850;8.938;2022-10-30T12:24:53;21.90;99.90
7588;DHT22;3835;48.850;8.938;2022-10-30T12:27:20;21.80;99.90
7588;DHT22;3835;48.850;8.938;2022-10-30T12:29:57;21.80;99.90
7588;DHT22;3835;48.850;8.938;2022-10-30T12:32:33;21.70;99.90
7588;DHT22;3835;48.850;8.938;2022-10-30T12:35:10;21.70;99.90
7588;DHT22;3835;48.850;8.938;2022-10-30T12:37:42;21.70;99.90
7588;DHT22;3835;48.850;8.938;2022-10-30T12:40:14;21.80;99.90
7588;DHT22;3835;48.850;8.938;2022-10-30T12:42:45;21.90;99.90
7588;DHT22;3835;48.850;8.938;2022-10-30T12:45:16;21.80;99.90
7588;DHT22;3835;48.850;8.938;2022-10-30T12:47:49;21.80;99.90
7588;DHT22;3835;48.850;8.938;2022-10-30T12:50:23;21.90;99.90
7588;DHT22;3835;48.850;8.938;2022-10-30T12:52:56;22.00;99.90
7588;DHT22;3835;48.850;8.938;2022-10-30T12:55:30;22.00;99.90
7588;DHT22;3835;48.850;8.938;2022-10-30T12:58:02;21.90;99.90
7588;DHT22;3835;48.850;8.938;2022-10-30T13:00:37;21.90;99.90
7588;DHT22;3835;48.850;8.938;2022-10-30T13:03:19;21.90;99.90
7588;DHT22;3835;48.850;8.938;2022-10-30T13:05:53;21.90;99.90
7588;DHT22;3835;48.850;8.938;2022-10-30T13:08:26;21.90;99.90
7588;DHT22;3835;48.850;8.938;2022-10-30T13:11:01;21.90;99.90
7588;DHT22;3835;48.850;8.938;2022-10-30T13:13:32;22.00;99.90
7588;DHT22;3835;48.850;8.938;2022-10-30T13:16:02;22.00;99.90
7588;DHT22;3835;48.850;8.938;2022-10-30T13:18:30;22.00;99.90
7588;DHT22;3835;48.850;8.938;2022-10-30T13:21:10;22.00;99.90
7588;DHT22;3835;48.850;8.938;2022-10-30T13:23:49;22.10;99.90
7588;DHT22;3835;48.850;8.938;2022-10-30T13:26:23;22.20;99.90
7588;DHT22;3835;48.850;8.938;2022-10-30T13:28:56;22.20;99.90
7588;DHT22;3835;48.850;8.938;2022-10-30T13:31:32;22.30;99.90
7588;DHT22;3835;48.850;8.938;2022-10-30T13:34:10;22.40;99.90
7588;DHT22;3835;48.850;8.938;2022-10-30T13:36:47;22.40;99.90
7588;DHT22;3835;48.850;8.938;2022-10-30T13:39:22;22.30;99.90
7588;DHT22;3835;48.850;8.938;2022-10-30T13:42:01;22.20;99.90
7588;DHT22;3835;48.850;8.938;2022-10-30T13:44:36;22.10;99.90
7588;DHT22;3835;48.850;8.938;2022-10-30T13:47:16;22.10;99.90
7588;DHT22;3835;48.850;8.938;2022-10-30T13:50:02;22.10;99.90
7588;DHT22;3835;48.850;8.938;2022-10-30T13:52:34;22.20;99.90
7588;DHT22;3835;48.850;8.938;2022-10-30T13:55:04;22.10;99.90
7588;DHT22;3835;48.850;8.938;2022-10-30T13:57:36;22.10;99.90
7588;DHT22;3835;48.850;8.938;2022-10-30T14:00:13;22.10;99.90
7588;DHT22;3835;48.850;8.938;2022-10-30T14:03:12;22.10;99.90
7588;DHT22;3835;48.850;8.938;2022-10-30T14:05:44;22.00;99.90
7588;DHT22;3835;48.850;8.938;2022-10-30T14:08:21;22.00;99.90
7588;DHT22;3835;48.850;8.938;2022-10-30T14:10:55;21.90;99.90
7588;DHT22;3835;48.850;8.938;2022-10-30T14:13:23;21.70;99.90
7588;DHT22;3835;48.850;8.938;2022-10-30T14:15:58;21.60;99.90
7588;DHT22;3835;48.850;8.938;2022-10-30T14:18:28;21.50;99.90
7588;DHT22;3835;48.850;8.938;2022-10-30T14:20:56;21.40;99.90
7588;DHT22;3835;48.850;8.938;2022-10-30T14:23:28;21.30;99.90
7588;DHT22;3835;48.850;8.938;2022-10-30T14:26:19;21.20;99.90
7588;DHT22;3835;48.850;8.938;2022-10-30T14:28:48;21.20;99.90
7588;DHT22;3835;48.850;8.938;2022-10-30T14:31:17;21.20;99.90
7588;DHT22;3835;48.850;8.938;2022-10-30T14:33:47;21.20;99.90
7588;DHT22;3835;48.850;8.938;2022-10-30T14:36:20;21.20;99.90
7588;DHT22;3835;48.850;8.938;2022-10-30T14:38:58;21.20;99.90
7588;DHT22;3835;48.850;8.938;2022-10-30T14:41:43;21.10;99.90
7588;DHT22;3835;48.850;8.938;2022-10-30T14:44:23;21.00;99.90
7588;DHT22;3835;48.850;8.938;2022-10-30T14:47:00;21.00;99.90
7588;DHT22;3835;48.850;8.938;2022-10-30T14:52:07;20.90;99.90
7588;DHT22;3835;48.850;8.938;2022-10-30T14:54:44;20.80;99.90
7588;DHT22;3835;48.850;8.938;2022-10-30T14:57:21;20.70;99.90
7588;DHT22;3835;48.850;8.938;2022-10-30T14:59:48;20.70;99.90
7588;DHT22;3835;48.850;8.938;2022-10-30T15:02:37;20.60;99.90
7588;DHT22;3835;48.850;8.938;2022-10-30T15:05:30;20.40;99.90
7588;DHT22;3835;48.850;8.938;2022-10-30T15:08:12;20.30;99.90
7588;DHT22;3835;48.850;8.938;2022-10-30T15:10:56;20.10;99.90
7588;DHT22;3835;48.850;8.938;2022-10-30T15:13:26;20.10;99.90
7588;DHT22;3835;48.850;8.938;2022-10-30T15:15:57;20.00;99.90
7588;DHT22;3835;48.850;8.938;2022-10-30T15:18:24;19.80;99.90
7588;DHT22;3835;48.850;8.938;2022-10-30T15:20:52;19.80;99.90
7588;DHT22;3835;48.850;8.938;2022-10-30T15:23:23;19.70;99.90
7588;DHT22;3835;48.850;8.938;2022-10-30T15:25:57;19.60;99.90
7588;DHT22;3835;48.850;8.938;2022-10-30T15:28:26;19.60;99.90
7588;DHT22;3835;48.850;8.938;2022-10-30T15:30:58;19.50;99.90
7588;DHT22;3835;48.850;8.938;2022-10-30T15:33:26;19.50;99.90
7588;DHT22;3835;48.850;8.938;2022-10-30T15:35:53;19.40;99.90
7588;DHT22;3835;48.850;8.938;2022-10-30T15:38:19;19.30;99.90
7588;DHT22;3835;48.850;8.938;2022-10-30T15:40:46;19.20;99.90
7588;DHT22;3835;48.850;8.938;2022-10-30T15:43:16;19.00;99.90
7588;DHT22;3835;48.850;8.938;2022-10-30T15:45:44;19.00;99.90
7588;DHT22;3835;48.850;8.938;2022-10-30T15:48:20;18.90;99.90
7588;DHT22;3835;48.850;8.938;2022-10-30T15:50:53;18.70;99.90
7588;DHT22;3835;48.850;8.938;2022-10-30T15:53:24;18.60;99.90
7588;DHT22;3835;48.850;8.938;2022-10-30T15:55:57;18.40;99.90
7588;DHT22;3835;48.850;8.938;2022-10-30T15:58:26;18.40;99.90
7588;DHT22;3835;48.850;8.938;2022-10-30T16:00:57;18.30;99.90
7588;DHT22;3835;48.850;8.938;2022-10-30T16:03:24;18.10;99.90
7588;DHT22;3835;48.850;8.938;2022-10-30T16:06:03;18.00;99.90
7588;DHT22;3835;48.850;8.938;2022-10-30T16:08:30;17.90;99.90
7588;DHT22;3835;48.850;8.938;2022-10-30T16:10:56;17.80;99.90
7588;DHT22;3835;48.850;8.938;2022-10-30T16:13:28;17.60;99.90
7588;DHT22;3835;48.850;8.938;2022-10-30T16:15:56;17.50;99.90
7588;DHT22;3835;48.850;8.938;2022-10-30T16:18:24;17.40;99.90
7588;DHT22;3835;48.850;8.938;2022-10-30T16:20:53;17.50;99.90
7588;DHT22;3835;48.850;8.938;2022-10-30T16:23:21;17.40;99.90
7588;DHT22;3835;48.850;8.938;2022-10-30T16:25:53;17.30;99.90
7588;DHT22;3835;48.850;8.938;2022-10-30T16:28:23;17.30;99.90